createdAt,value
2023-02-21T00:00:17.639Z,58.80
2023-02-21T00:03:07.386Z,58.90
2023-02-21T00:05:55.920Z,59.28
2023-02-21T00:08:44.547Z,59.89
2023-02-21T00:11:32.893Z,60.12
2023-02-21T00:14:20.990Z,60.24
2023-02-21T00:17:09.624Z,61.14
2023-02-21T00:19:58.042Z,61.30
2023-02-21T00:22:46.049Z,61.47
2023-02-21T00:25:34.044Z,60.74
2023-02-21T00:28:22.817Z,60.98
2023-02-21T00:31:11.232Z,61.01
2023-02-21T00:34:00.063Z,60.50
2023-02-21T00:36:48.884Z,60.46
2023-02-21T00:39:37.120Z,60.79
2023-02-21T00:42:25.617Z,58.97
2023-02-21T00:45:13.929Z,58.63
2023-02-21T00:48:02.232Z,58.09
2023-02-21T00:50:51.549Z,57.90
2023-02-21T00:53:39.991Z,57.74
2023-02-21T00:56:28.319Z,57.39
2023-02-21T00:59:16.397Z,57.18
2023-02-21T01:02:04.725Z,57.04
2023-02-21T01:04:53.146Z,56.83
2023-02-21T01:07:41.761Z,57.00
2023-02-21T01:10:30.036Z,56.89
2023-02-21T01:13:18.488Z,56.51
2023-02-21T01:16:06.781Z,56.57
2023-02-21T01:18:55.337Z,56.36
2023-02-21T01:21:43.722Z,56.17
2023-02-21T01:24:34.419Z,56.00
2023-02-21T01:27:22.645Z,55.99
2023-02-21T01:30:10.894Z,55.99
2023-02-21T01:32:59.218Z,55.44
2023-02-21T01:35:48.433Z,55.59
2023-02-21T01:38:37.089Z,55.61
2023-02-21T01:41:25.656Z,55.30
2023-02-21T01:44:21.485Z,55.56
2023-02-21T01:47:10.368Z,55.22
2023-02-21T01:50:00.643Z,55.57
2023-02-21T01:52:49.222Z,55.27
2023-02-21T01:55:37.563Z,55.23
2023-02-21T01:58:26.255Z,55.29
2023-02-21T02:01:15.057Z,55.35
2023-02-21T02:04:05.164Z,55.26
2023-02-21T02:06:54.858Z,55.25
2023-02-21T02:09:43.325Z,55.21
2023-02-21T02:12:31.124Z,55.01
2023-02-21T02:15:07.560Z,54.68
2023-02-21T02:17:52.841Z,54.96
2023-02-21T02:20:25.638Z,54.66
2023-02-21T02:23:18.429Z,54.55
2023-02-21T02:26:06.618Z,54.94
2023-02-21T02:28:36.846Z,54.87
2023-02-21T02:31:27.630Z,54.58
2023-02-21T02:34:11.269Z,54.75
2023-02-21T02:36:45.647Z,54.51
2023-02-21T02:39:15.650Z,54.48
2023-02-21T02:41:48.768Z,54.34
2023-02-21T02:44:18.933Z,54.41
2023-02-21T02:46:50.942Z,54.55
2023-02-21T02:49:24.615Z,54.47
2023-02-21T02:51:55.029Z,54.48
2023-02-21T02:54:27.953Z,54.41
2023-02-21T02:57:00.396Z,54.41
2023-02-21T02:59:34.744Z,53.99
2023-02-21T03:02:04.936Z,54.05
2023-02-21T03:04:53.212Z,53.84
2023-02-21T03:07:27.186Z,54.32
2023-02-21T03:10:15.664Z,53.69
2023-02-21T03:12:53.506Z,54.04
2023-02-21T03:15:34.472Z,54.10
2023-02-21T03:18:23.169Z,53.63
2023-02-21T03:20:56.679Z,53.64
2023-02-21T03:23:29.052Z,53.41
2023-02-21T03:26:01.308Z,53.43
2023-02-21T03:28:32.421Z,53.40
2023-02-21T03:31:05.529Z,53.50
2023-02-21T03:33:35.662Z,53.49
2023-02-21T03:36:10.653Z,53.24
2023-02-21T03:38:41.505Z,53.23
2023-02-21T03:41:13.064Z,53.50
2023-02-21T03:43:43.342Z,53.60
2023-02-21T03:46:14.497Z,53.01
2023-02-21T03:48:45.005Z,53.36
2023-02-21T03:51:22.810Z,53.00
2023-02-21T03:53:53.469Z,53.41
2023-02-21T03:56:41.525Z,52.97
2023-02-21T03:59:27.632Z,53.27
2023-02-21T04:01:58.338Z,53.31
2023-02-21T04:04:32.069Z,52.81
2023-02-21T04:07:15.100Z,53.00
2023-02-21T04:09:46.191Z,52.55
2023-02-21T04:12:19.944Z,52.49
2023-02-21T04:14:50.115Z,52.81
2023-02-21T04:17:20.513Z,52.44
2023-02-21T04:19:51.313Z,52.13
2023-02-21T04:22:21.696Z,52.59
2023-02-21T04:24:53.558Z,52.51
2023-02-21T04:27:25.950Z,51.88
2023-02-21T04:29:59.162Z,52.11
2023-02-21T04:32:29.211Z,52.16
2023-02-21T04:34:59.569Z,52.19
2023-02-21T04:37:29.828Z,51.71
2023-02-21T04:40:01.244Z,51.57
2023-02-21T04:42:33.788Z,51.98
2023-02-21T04:45:04.594Z,52.18
2023-02-21T04:47:34.739Z,52.04
2023-02-21T04:50:05.215Z,52.12
2023-02-21T04:52:35.264Z,51.78
2023-02-21T04:55:05.367Z,51.68
2023-02-21T04:57:35.361Z,51.65
2023-02-21T05:00:08.700Z,51.90
2023-02-21T05:02:38.811Z,51.73
2023-02-21T05:05:09.445Z,51.67
2023-02-21T05:07:39.454Z,51.18
2023-02-21T05:10:11.110Z,51.06
2023-02-21T05:12:41.415Z,51.63
2023-02-21T05:15:12.214Z,51.22
2023-02-21T05:17:42.622Z,51.53
2023-02-21T05:20:13.529Z,51.01
2023-02-21T05:22:44.157Z,51.48
2023-02-21T05:25:24.659Z,50.93
2023-02-21T05:27:55.688Z,51.39
2023-02-21T05:30:26.057Z,51.63
2023-02-21T05:32:56.153Z,51.65
2023-02-21T05:35:26.175Z,51.67
2023-02-21T05:37:56.296Z,51.39
2023-02-21T05:40:26.333Z,51.65
2023-02-21T05:42:56.732Z,51.29
2023-02-21T05:45:27.102Z,51.58
2023-02-21T05:48:01.562Z,51.20
2023-02-21T05:50:31.836Z,51.44
2023-02-21T05:53:02.519Z,51.09
2023-02-21T05:55:33.168Z,50.79
2023-02-21T05:58:03.239Z,50.83
2023-02-21T06:00:33.815Z,50.90
2023-02-21T06:03:04.983Z,50.60
2023-02-21T06:05:35.146Z,50.69
2023-02-21T06:08:05.322Z,50.74
2023-02-21T06:10:35.632Z,50.58
2023-02-21T06:13:05.700Z,50.73
2023-02-21T06:15:35.792Z,50.67
2023-02-21T06:18:05.921Z,50.39
2023-02-21T06:20:35.948Z,50.61
2023-02-21T06:23:05.933Z,50.50
2023-02-21T06:25:36.177Z,50.80
2023-02-21T06:28:06.625Z,50.03
2023-02-21T06:30:36.790Z,50.30
2023-02-21T06:33:06.830Z,50.53
2023-02-21T06:35:36.945Z,50.46
2023-02-21T06:38:06.955Z,50.60
2023-02-21T06:40:36.981Z,50.36
2023-02-21T06:43:07.153Z,50.01
2023-02-21T06:45:37.336Z,50.24
2023-02-21T06:48:07.658Z,50.12
2023-02-21T06:50:38.123Z,50.19
2023-02-21T06:53:08.172Z,50.07
2023-02-21T06:55:38.280Z,50.38
2023-02-21T06:58:08.348Z,49.77
2023-02-21T07:00:38.370Z,50.03
2023-02-21T07:03:08.457Z,49.88
2023-02-21T07:05:40.013Z,49.78
2023-02-21T07:08:10.234Z,49.73
2023-02-21T07:10:40.490Z,49.93
2023-02-21T07:13:10.977Z,49.63
2023-02-21T07:15:41.053Z,49.83
2023-02-21T07:18:11.324Z,49.40
2023-02-21T07:20:41.787Z,50.08
2023-02-21T07:23:11.974Z,49.47
2023-02-21T07:25:42.619Z,49.59
2023-02-21T07:28:13.473Z,49.60
2023-02-21T07:30:43.986Z,49.69
2023-02-21T07:33:14.222Z,49.59
2023-02-21T07:35:44.446Z,49.71
2023-02-21T07:38:24.627Z,49.41
2023-02-21T07:41:01.290Z,49.59
2023-02-21T07:43:32.601Z,49.27
2023-02-21T07:46:03.202Z,49.72
2023-02-21T07:48:33.257Z,49.38
2023-02-21T07:51:03.301Z,49.27
2023-02-21T07:53:33.341Z,49.36
2023-02-21T07:56:03.585Z,49.63
2023-02-21T07:58:33.941Z,49.32
2023-02-21T08:01:04.790Z,48.98
2023-02-21T08:03:35.071Z,49.25
2023-02-21T08:06:05.702Z,49.30
2023-02-21T08:08:35.745Z,49.25
2023-02-21T08:11:06.536Z,49.23
2023-02-21T08:13:36.559Z,49.10
2023-02-21T08:16:06.785Z,49.10
2023-02-21T08:18:36.966Z,49.17
2023-02-21T08:21:10.784Z,49.22
2023-02-21T08:23:41.304Z,49.12
2023-02-21T08:26:11.390Z,48.95
2023-02-21T08:28:41.405Z,49.04
2023-02-21T08:31:11.534Z,49.09
2023-02-21T08:33:41.824Z,48.88
2023-02-21T08:36:12.193Z,49.05
2023-02-21T08:38:42.537Z,48.92
2023-02-21T08:41:12.830Z,48.68
2023-02-21T08:43:43.254Z,48.75
2023-02-21T08:46:13.326Z,48.65
2023-02-21T08:48:44.292Z,48.92
2023-02-21T08:51:14.937Z,48.74
2023-02-21T08:53:45.311Z,48.71
2023-02-21T08:56:19.950Z,48.65
2023-02-21T08:58:50.449Z,48.64
2023-02-21T09:01:20.889Z,48.60
2023-02-21T09:03:51.126Z,48.13
2023-02-21T09:06:21.275Z,48.36
2023-02-21T09:08:51.272Z,48.20
2023-02-21T09:11:21.352Z,48.38
2023-02-21T09:13:51.750Z,48.15
2023-02-21T09:16:21.889Z,48.74
2023-02-21T09:19:00.421Z,49.15
2023-02-21T09:21:30.674Z,49.61
2023-02-21T09:24:00.870Z,50.01
2023-02-21T09:26:34.025Z,50.39
2023-02-21T09:29:04.090Z,51.44
2023-02-21T09:31:34.206Z,51.37
2023-02-21T09:34:04.318Z,51.99
2023-02-21T09:36:37.294Z,52.10
2023-02-21T09:39:08.048Z,52.55
2023-02-21T09:41:38.850Z,53.13
2023-02-21T09:44:09.262Z,53.57
2023-02-21T09:46:50.628Z,53.65
2023-02-21T09:49:23.628Z,53.83
2023-02-21T09:51:55.052Z,54.44
2023-02-21T09:54:35.564Z,54.53
2023-02-21T09:57:07.583Z,54.72
2023-02-21T09:59:37.629Z,54.94
2023-02-21T10:02:17.435Z,55.25
2023-02-21T10:04:59.561Z,55.41
2023-02-21T10:07:39.458Z,55.90
2023-02-21T10:10:29.855Z,56.07
2023-02-21T10:13:20.260Z,56.20
2023-02-21T10:15:50.322Z,56.75
2023-02-21T10:18:27.381Z,57.90
2023-02-21T10:21:00.978Z,57.45
2023-02-21T10:23:34.096Z,57.56
2023-02-21T10:26:08.842Z,57.94
2023-02-21T10:28:39.324Z,57.34
2023-02-21T10:31:38.668Z,57.79
2023-02-21T10:34:18.235Z,58.25
2023-02-21T10:36:49.482Z,59.06
2023-02-21T10:39:39.604Z,59.66
2023-02-21T10:42:15.206Z,59.91
2023-02-21T10:44:45.544Z,59.49
2023-02-21T10:47:25.709Z,59.62
2023-02-21T10:50:03.383Z,60.40
2023-02-21T10:52:38.989Z,60.59
2023-02-21T10:55:31.318Z,60.33
2023-02-21T10:58:12.111Z,60.15
2023-02-21T11:00:49.425Z,60.45
2023-02-21T11:03:22.302Z,60.60
2023-02-21T11:05:59.166Z,59.98
2023-02-21T11:08:43.756Z,59.73
2023-02-21T11:11:14.176Z,59.18
2023-02-21T11:13:45.661Z,59.50
2023-02-21T11:16:26.246Z,59.19
2023-02-21T11:19:09.341Z,59.30
2023-02-21T11:21:39.648Z,59.63
2023-02-21T11:24:09.989Z,59.53
2023-02-21T11:26:54.947Z,59.23
2023-02-21T11:29:27.428Z,58.79
2023-02-21T11:31:58.050Z,58.80
2023-02-21T11:34:30.926Z,58.38
2023-02-21T11:37:04.372Z,58.29
2023-02-21T11:39:35.297Z,58.14
2023-02-21T11:42:08.383Z,57.82
2023-02-21T11:44:42.618Z,57.81
2023-02-21T11:47:18.349Z,57.39
2023-02-21T11:50:02.925Z,57.50
2023-02-21T11:52:49.736Z,57.52
2023-02-21T11:55:26.347Z,57.42
2023-02-21T11:58:08.419Z,57.25
2023-02-21T12:00:39.980Z,57.39
2023-02-21T12:03:13.204Z,57.02
2023-02-21T12:05:56.273Z,57.37
2023-02-21T12:08:45.240Z,56.95
2023-02-21T12:11:35.518Z,56.94
2023-02-21T12:14:05.690Z,57.19
2023-02-21T12:16:44.560Z,57.71
2023-02-21T12:19:52.857Z,57.57
2023-02-21T12:22:42.486Z,57.96
2023-02-21T12:25:25.514Z,57.93
2023-02-21T12:28:03.263Z,58.50
2023-02-21T12:30:54.345Z,58.58
2023-02-21T12:33:43.100Z,58.76
2023-02-21T12:36:23.723Z,58.99
2023-02-21T12:38:58.562Z,59.12
2023-02-21T12:41:45.076Z,59.24
2023-02-21T12:44:17.955Z,59.46
2023-02-21T12:47:05.699Z,59.16
2023-02-21T12:49:45.838Z,59.53
2023-02-21T12:52:24.757Z,59.35
2023-02-21T12:54:54.890Z,60.09
2023-02-21T12:57:32.573Z,59.94
2023-02-21T13:00:09.421Z,60.16
2023-02-21T13:02:59.986Z,61.22
2023-02-21T13:05:47.142Z,61.25
2023-02-21T13:08:25.104Z,61.63
2023-02-21T13:11:16.725Z,61.59
2023-02-21T13:13:49.380Z,61.76
2023-02-21T13:16:25.587Z,61.73
2023-02-21T13:19:02.748Z,61.64
2023-02-21T13:21:52.802Z,61.73
2023-02-21T13:24:42.386Z,61.63
2023-02-21T13:27:26.076Z,62.25
2023-02-21T13:30:22.131Z,62.77
2023-02-21T13:32:59.556Z,63.11
2023-02-21T13:35:38.027Z,62.74
2023-02-21T13:38:16.993Z,63.10
2023-02-21T13:41:10.634Z,63.45
2023-02-21T13:43:55.568Z,63.87
2023-02-21T13:46:30.851Z,64.52
2023-02-21T13:49:23.919Z,64.50
2023-02-21T13:51:58.260Z,64.77
2023-02-21T13:54:30.482Z,64.89
2023-02-21T13:57:02.386Z,65.40
2023-02-21T13:59:37.970Z,65.44
2023-02-21T14:02:24.730Z,66.11
2023-02-21T14:04:58.306Z,66.23
2023-02-21T14:07:53.488Z,66.30
2023-02-21T14:10:45.237Z,66.03
2023-02-21T14:13:35.204Z,66.56
2023-02-21T14:16:19.942Z,66.04
2023-02-21T14:19:13.154Z,66.40
2023-02-21T14:21:48.622Z,63.73
2023-02-21T14:24:23.884Z,61.09
2023-02-21T14:27:04.172Z,58.51
2023-02-21T14:29:42.237Z,56.08
2023-02-21T14:32:12.686Z,54.79
2023-02-21T14:34:50.031Z,54.14
2023-02-21T14:37:39.607Z,52.68
2023-02-21T14:40:20.930Z,51.82
2023-02-21T14:43:11.001Z,51.32
2023-02-21T14:46:12.014Z,50.67
2023-02-21T14:49:05.656Z,49.94
2023-02-21T14:52:04.994Z,48.97
2023-02-21T14:54:46.750Z,50.13
2023-02-21T14:57:43.453Z,48.93
2023-02-21T15:00:25.294Z,48.30
2023-02-21T15:06:15.512Z,47.25
2023-02-21T15:08:53.359Z,46.32
2023-02-21T15:11:34.236Z,46.33
2023-02-21T15:14:26.867Z,45.56
2023-02-21T15:17:02.440Z,45.09
2023-02-21T15:19:38.602Z,44.78
2023-02-21T15:22:17.627Z,44.98
2023-02-21T15:25:02.057Z,45.49
2023-02-21T15:27:32.160Z,44.77
2023-02-21T15:30:15.171Z,44.16
2023-02-21T15:32:59.708Z,44.26
2023-02-21T15:35:42.042Z,44.05
2023-02-21T15:38:22.848Z,43.58
2023-02-21T15:40:57.108Z,43.08
2023-02-21T15:43:42.995Z,42.96
2023-02-21T15:46:16.752Z,43.06
2023-02-21T15:48:48.207Z,42.67
2023-02-21T15:51:28.304Z,42.35
2023-02-21T15:54:17.064Z,42.32
2023-02-21T15:56:47.378Z,42.30
2023-02-21T15:59:29.945Z,42.04
2023-02-21T16:02:20.191Z,41.97
2023-02-21T16:04:56.637Z,41.96
2023-02-21T16:07:29.481Z,41.80
2023-02-21T16:10:07.589Z,41.90
2023-02-21T16:12:41.072Z,42.19
2023-02-21T16:15:29.821Z,41.71
2023-02-21T16:18:05.063Z,42.11
2023-02-21T16:20:35.185Z,41.44
2023-02-21T16:23:30.758Z,41.68
2023-02-21T16:26:19.899Z,41.82
2023-02-21T16:28:50.259Z,41.74
2023-02-21T16:31:31.225Z,41.48
2023-02-21T16:34:04.507Z,41.86
2023-02-21T16:36:41.982Z,41.42
2023-02-21T16:39:13.549Z,41.70
2023-02-21T16:41:43.874Z,41.46
2023-02-21T16:44:25.792Z,41.76
2023-02-21T16:46:57.574Z,41.61
2023-02-21T16:49:29.529Z,41.56
2023-02-21T16:51:59.699Z,41.55
2023-02-21T16:54:29.680Z,41.55
2023-02-21T16:56:59.632Z,41.49
2023-02-21T16:59:29.682Z,41.72
2023-02-21T17:01:59.922Z,41.46
2023-02-21T17:04:31.125Z,41.57
2023-02-21T17:07:08.197Z,41.16
2023-02-21T17:09:42.340Z,41.22
2023-02-21T17:12:14.007Z,41.16
2023-02-21T17:14:44.192Z,41.44
2023-02-21T17:17:14.251Z,41.32
2023-02-21T17:19:44.546Z,41.13
2023-02-21T17:22:14.560Z,40.98
2023-02-21T17:24:44.666Z,41.19
2023-02-21T17:27:16.051Z,41.39
2023-02-21T17:29:46.230Z,41.09
2023-02-21T17:32:16.533Z,40.77
2023-02-21T17:34:46.720Z,41.13
2023-02-21T17:37:16.748Z,40.97
2023-02-21T17:39:46.854Z,41.39
2023-02-21T17:42:17.209Z,41.15
2023-02-21T17:44:48.731Z,40.92
2023-02-21T17:47:22.643Z,40.95
2023-02-21T17:49:55.842Z,40.88
2023-02-21T17:52:25.934Z,41.16
2023-02-21T17:54:56.350Z,40.55
2023-02-21T17:57:27.081Z,41.04
2023-02-21T17:59:57.156Z,40.91
2023-02-21T18:02:27.141Z,41.00
2023-02-21T18:05:00.353Z,40.83
2023-02-21T18:07:34.020Z,40.73
2023-02-21T18:10:05.736Z,40.94
2023-02-21T18:12:35.942Z,40.88
2023-02-21T18:15:08.309Z,40.98
2023-02-21T18:17:39.034Z,40.97
2023-02-21T18:20:11.012Z,40.97
2023-02-21T18:22:41.104Z,40.82
2023-02-21T18:25:11.590Z,40.89
2023-02-21T18:27:41.678Z,40.94
2023-02-21T18:30:12.386Z,40.94
2023-02-21T18:32:42.774Z,40.84
2023-02-21T18:35:12.764Z,41.02
2023-02-21T18:37:43.260Z,40.88
2023-02-21T18:40:15.247Z,40.96
2023-02-21T18:42:45.870Z,41.20
2023-02-21T18:45:15.852Z,41.54
2023-02-21T18:47:45.947Z,41.66
2023-02-21T18:50:16.584Z,41.93
2023-02-21T18:52:46.987Z,42.21
2023-02-21T18:55:18.944Z,42.25
2023-02-21T18:57:49.420Z,42.36
2023-02-21T19:00:20.620Z,42.55
2023-02-21T19:02:50.943Z,42.91
2023-02-21T19:05:22.687Z,42.59
2023-02-21T19:07:53.640Z,42.74
2023-02-21T19:10:25.276Z,42.86
2023-02-21T19:12:55.617Z,43.08
2023-02-21T19:15:25.604Z,42.98
2023-02-21T19:17:55.940Z,43.19
2023-02-21T19:20:26.037Z,43.05
2023-02-21T19:22:57.438Z,43.39
2023-02-21T19:25:29.149Z,43.53
2023-02-21T19:28:01.733Z,43.27
2023-02-21T19:30:35.647Z,43.22
2023-02-21T19:33:07.202Z,43.21
2023-02-21T19:35:39.041Z,43.24
2023-02-21T19:38:10.163Z,43.33
2023-02-21T19:40:40.132Z,43.45
2023-02-21T19:43:10.266Z,43.44
2023-02-21T19:45:40.343Z,43.42
2023-02-21T19:48:10.435Z,43.43
2023-02-21T19:50:41.257Z,43.32
2023-02-21T19:53:11.515Z,43.49
2023-02-21T19:55:41.723Z,43.46
2023-02-21T19:58:11.999Z,43.86
2023-02-21T20:00:45.546Z,43.78
2023-02-21T20:03:15.687Z,43.85
2023-02-21T20:05:45.812Z,43.82
2023-02-21T20:08:15.897Z,43.95
2023-02-21T20:10:45.906Z,43.70
2023-02-21T20:13:15.976Z,43.76
2023-02-21T20:15:46.357Z,43.79
2023-02-21T20:18:16.374Z,43.98
2023-02-21T20:20:47.110Z,43.74
2023-02-21T20:23:18.207Z,43.56
2023-02-21T20:25:48.223Z,43.78
2023-02-21T20:28:18.714Z,43.79
2023-02-21T20:30:48.775Z,43.98
2023-02-21T20:33:21.979Z,43.96
2023-02-21T20:35:52.669Z,43.78
2023-02-21T20:38:22.917Z,43.61
2023-02-21T20:40:53.000Z,43.74
2023-02-21T20:43:22.992Z,43.70
2023-02-21T20:45:53.262Z,43.57
2023-02-21T20:48:26.867Z,43.82
2023-02-21T20:50:56.914Z,43.53
2023-02-21T20:53:27.002Z,43.64
2023-02-21T20:55:57.352Z,43.66
2023-02-21T20:58:27.357Z,43.56
2023-02-21T21:00:57.374Z,43.46
2023-02-21T21:03:30.806Z,43.47
2023-02-21T21:06:00.770Z,43.59
2023-02-21T21:08:30.848Z,43.50
2023-02-21T21:11:00.995Z,44.17
2023-02-21T21:13:31.204Z,46.61
2023-02-21T21:16:01.239Z,48.58
2023-02-21T21:18:31.841Z,49.88
2023-02-21T21:21:03.589Z,51.51
2023-02-21T21:23:34.020Z,53.35
2023-02-21T21:26:06.630Z,51.77
2023-02-21T21:28:37.737Z,50.30
2023-02-21T21:31:10.298Z,49.64
2023-02-21T21:33:41.318Z,48.84
2023-02-21T21:36:12.416Z,48.30
2023-02-21T21:38:43.569Z,47.88
2023-02-21T21:41:16.844Z,47.59
2023-02-21T21:43:47.741Z,47.20
2023-02-21T21:46:17.890Z,46.91
2023-02-21T21:48:47.992Z,46.32
2023-02-21T21:51:18.552Z,46.40
2023-02-21T21:53:48.716Z,45.90
2023-02-21T21:56:23.861Z,45.74
2023-02-21T21:58:53.974Z,45.51
2023-02-21T22:01:23.979Z,46.72
2023-02-21T22:03:54.013Z,48.32
2023-02-21T22:06:24.566Z,49.81
2023-02-21T22:08:57.436Z,51.22
2023-02-21T22:11:27.599Z,52.21
2023-02-21T22:13:58.027Z,53.39
2023-02-21T22:16:28.196Z,53.99
2023-02-21T22:18:58.200Z,55.60
2023-02-21T22:21:28.921Z,53.65
2023-02-21T22:23:59.125Z,51.89
2023-02-21T22:26:30.190Z,51.01
2023-02-21T22:29:00.639Z,50.02
2023-02-21T22:31:30.813Z,49.20
2023-02-21T22:34:03.491Z,48.72
2023-02-21T22:36:34.263Z,49.00
2023-02-21T22:39:10.952Z,50.70
2023-02-21T22:41:41.319Z,52.59
2023-02-21T22:44:14.002Z,53.92
2023-02-21T22:46:45.391Z,54.80
2023-02-21T22:49:18.624Z,55.30
2023-02-21T22:51:48.709Z,56.40
2023-02-21T22:54:18.705Z,55.00
2023-02-21T22:56:56.238Z,53.48
2023-02-21T22:59:27.362Z,52.12
2023-02-21T23:01:59.888Z,51.59
2023-02-21T23:04:30.230Z,52.42
2023-02-21T23:07:00.899Z,52.18
2023-02-21T23:09:31.644Z,52.41
2023-02-21T23:12:02.289Z,53.34
2023-02-21T23:14:38.342Z,53.32
2023-02-21T23:17:10.909Z,53.03
2023-02-21T23:19:41.271Z,53.70
2023-02-21T23:22:11.626Z,54.05
2023-02-21T23:24:44.910Z,53.84
2023-02-21T23:27:14.905Z,54.29
2023-02-21T23:29:44.938Z,54.14
2023-02-21T23:32:15.221Z,54.72
2023-02-21T23:34:51.897Z,54.28
2023-02-21T23:37:21.918Z,54.61
2023-02-21T23:39:51.982Z,54.82
2023-02-21T23:42:21.947Z,54.29
2023-02-21T23:44:52.372Z,54.99
2023-02-21T23:47:23.010Z,55.22
2023-02-21T23:49:53.533Z,55.39
2023-02-21T23:52:24.248Z,55.51
2023-02-21T23:54:56.851Z,57.56
2023-02-21T23:57:26.944Z,56.63
2023-02-21T23:59:56.980Z,58.35
